createdAt,value
2023-04-08T00:00:03.495Z,100794.78
2023-04-08T00:02:32.778Z,100804.47
2023-04-08T00:05:00.740Z,100796.59
2023-04-08T00:07:28.461Z,100794.91
2023-04-08T00:09:56.749Z,100801.06
2023-04-08T00:12:24.516Z,100804.38
2023-04-08T00:14:52.203Z,100802.47
2023-04-08T00:17:19.898Z,100800.75
2023-04-08T00:19:48.991Z,100803.31
2023-04-08T00:22:16.712Z,100810.22
2023-04-08T00:24:44.475Z,100811.72
2023-04-08T00:27:12.175Z,100808.16
2023-04-08T00:29:39.885Z,100801.03
2023-04-08T00:32:07.944Z,100803.69
2023-04-08T00:34:35.619Z,100808.91
2023-04-08T00:37:04.725Z,100815.03
2023-04-08T00:39:32.375Z,100813.25
2023-04-08T00:42:01.878Z,100816.66
2023-04-08T00:44:29.721Z,100817.53
2023-04-08T00:46:57.482Z,100816.56
2023-04-08T00:49:25.314Z,100820.06
2023-04-08T00:51:53.060Z,100813.91
2023-04-08T00:54:22.170Z,100812.00
2023-04-08T00:56:49.928Z,100815.50
2023-04-08T00:59:19.406Z,100813.72
2023-04-08T01:01:56.448Z,100819.03
2023-04-08T01:04:30.693Z,100818.91
2023-04-08T01:07:04.657Z,100814.56
2023-04-08T01:09:36.769Z,100810.31
2023-04-08T01:12:09.078Z,100808.28
2023-04-08T01:14:43.259Z,100806.69
2023-04-08T01:17:11.929Z,100811.16
2023-04-08T01:19:41.638Z,100811.25
2023-04-08T01:22:20.892Z,100808.59
2023-04-08T01:24:54.378Z,100808.59
2023-04-08T01:27:23.551Z,100812.22
2023-04-08T01:29:51.612Z,100814.00
2023-04-08T01:32:19.779Z,100812.41
2023-04-08T01:34:47.858Z,100808.06
2023-04-08T01:37:17.347Z,100814.13
2023-04-08T01:39:46.597Z,100811.56
2023-04-08T01:42:15.440Z,100809.84
2023-04-08T01:44:45.502Z,100813.53
2023-04-08T01:47:14.780Z,100808.31
2023-04-08T01:49:43.679Z,100804.91
2023-04-08T01:52:12.484Z,100814.69
2023-04-08T01:54:40.304Z,100808.72
2023-04-08T01:57:12.889Z,100804.47
2023-04-08T01:59:42.117Z,100805.22
2023-04-08T02:02:12.305Z,100805.31
2023-04-08T02:04:40.313Z,100807.97
2023-04-08T02:07:08.215Z,100804.47
2023-04-08T02:09:35.917Z,100799.34
2023-04-08T02:12:03.643Z,100809.31
2023-04-08T02:14:31.853Z,100805.78
2023-04-08T02:17:06.581Z,100804.00
2023-04-08T02:19:41.662Z,100807.69
2023-04-08T02:22:18.862Z,100809.41
2023-04-08T02:24:47.756Z,100808.44
2023-04-08T02:27:17.022Z,100814.63
2023-04-08T02:29:45.759Z,100805.88
2023-04-08T02:32:13.765Z,100804.94
2023-04-08T02:34:44.032Z,100809.31
2023-04-08T02:37:11.855Z,100806.66
2023-04-08T02:39:39.594Z,100807.50
2023-04-08T02:42:07.281Z,100807.41
2023-04-08T02:44:35.014Z,100807.41
2023-04-08T02:47:02.716Z,100809.88
2023-04-08T02:49:30.512Z,100815.16
2023-04-08T02:51:59.582Z,100809.88
2023-04-08T02:54:27.226Z,100812.50
2023-04-08T02:56:54.972Z,100811.66
2023-04-08T02:59:22.783Z,100808.06
2023-04-08T03:01:50.640Z,100810.72
2023-04-08T03:04:18.354Z,100812.44
2023-04-08T03:06:46.098Z,100808.94
2023-04-08T03:09:15.160Z,100808.94
2023-04-08T03:11:42.880Z,100809.69
2023-04-08T03:14:10.587Z,100815.09
2023-04-08T03:16:38.398Z,100816.88
2023-04-08T03:19:06.117Z,100814.31
2023-04-08T03:21:33.770Z,100815.25
2023-04-08T03:24:01.448Z,100811.00
2023-04-08T03:26:30.689Z,100822.59
2023-04-08T03:28:58.435Z,100817.28
2023-04-08T03:31:26.730Z,100817.28
2023-04-08T03:33:54.451Z,100814.63
2023-04-08T03:36:22.083Z,100828.72
2023-04-08T03:38:49.953Z,100823.22
2023-04-08T03:41:17.742Z,100820.56
2023-04-08T03:43:46.982Z,100823.13
2023-04-08T03:46:14.686Z,100823.97
2023-04-08T03:48:42.400Z,100830.03
2023-04-08T03:51:10.071Z,100824.84
2023-04-08T03:53:37.808Z,100822.19
2023-04-08T03:56:06.015Z,100823.97
2023-04-08T03:58:33.737Z,100826.63
2023-04-08T04:01:02.815Z,100825.88
2023-04-08T04:03:30.723Z,100824.09
2023-04-08T04:05:58.561Z,100831.09
2023-04-08T04:08:26.252Z,100834.72
2023-04-08T04:10:54.092Z,100833.84
2023-04-08T04:13:22.033Z,100836.47
2023-04-08T04:15:49.750Z,100838.38
2023-04-08T04:18:18.879Z,100839.25
2023-04-08T04:20:46.591Z,100839.44
2023-04-08T04:23:14.303Z,100837.63
2023-04-08T04:25:42.650Z,100841.16
2023-04-08T04:28:10.834Z,100843.69
2023-04-08T04:30:38.872Z,100846.34
2023-04-08T04:33:06.891Z,100844.56
2023-04-08T04:35:36.043Z,100849.00
2023-04-08T04:38:05.675Z,100846.47
2023-04-08T04:40:33.380Z,100858.84
2023-04-08T04:43:01.153Z,100847.41
2023-04-08T04:45:28.889Z,100859.06
2023-04-08T04:47:56.644Z,100853.84
2023-04-08T04:50:24.398Z,100853.84
2023-04-08T04:52:53.407Z,100850.34
2023-04-08T04:55:22.412Z,100859.16
2023-04-08T04:57:50.314Z,100860.94
2023-04-08T05:00:18.201Z,100866.25
2023-04-08T05:02:46.107Z,100871.66
2023-04-08T05:05:14.082Z,100865.50
2023-04-08T05:07:41.965Z,100872.59
2023-04-08T05:10:11.957Z,100863.88
2023-04-08T05:12:39.617Z,100869.28
2023-04-08T05:15:08.546Z,100868.63
2023-04-08T05:17:36.269Z,100872.13
2023-04-08T05:20:04.493Z,100886.44
2023-04-08T05:22:32.317Z,100890.78
2023-04-08T05:24:59.995Z,100890.78
2023-04-08T05:27:29.055Z,100888.31
2023-04-08T05:29:56.744Z,100882.94
2023-04-08T05:32:24.555Z,100888.31
2023-04-08T05:34:52.277Z,100889.34
2023-04-08T05:37:19.995Z,100900.06
2023-04-08T05:39:47.687Z,100900.91
2023-04-08T05:42:15.628Z,100905.16
2023-04-08T05:44:44.820Z,100896.28
2023-04-08T05:47:13.100Z,100905.84
2023-04-08T05:49:40.794Z,100903.00
2023-04-08T05:52:08.528Z,100910.00
2023-04-08T05:54:36.364Z,100908.31
2023-04-08T05:57:04.321Z,100912.56
2023-04-08T05:59:31.989Z,100916.06
2023-04-08T06:02:01.091Z,100921.22
2023-04-08T06:04:28.890Z,100925.47
2023-04-08T06:06:59.571Z,100923.66
2023-04-08T06:09:27.376Z,100927.16
2023-04-08T06:11:55.053Z,100930.56
2023-04-08T06:14:22.706Z,100936.53
2023-04-08T06:16:50.417Z,100934.66
2023-04-08T06:19:19.554Z,100937.97
2023-04-08T06:21:47.302Z,100939.31
2023-04-08T06:24:14.978Z,100939.88
2023-04-08T06:26:42.639Z,100949.34
2023-04-08T06:29:10.348Z,100949.16
2023-04-08T06:31:38.113Z,100952.66
2023-04-08T06:34:05.829Z,100951.81
2023-04-08T06:36:34.841Z,100941.00
2023-04-08T06:39:02.527Z,100953.44
2023-04-08T06:41:30.252Z,100948.03
2023-04-08T06:43:57.892Z,100951.63
2023-04-08T06:46:26.498Z,100954.94
2023-04-08T06:48:54.214Z,100957.44
2023-04-08T06:51:21.903Z,100958.22
2023-04-08T06:53:50.979Z,100952.59
2023-04-08T06:56:18.688Z,100956.84
2023-04-08T06:58:47.286Z,100956.59
2023-04-08T07:01:16.413Z,100955.31
2023-04-08T07:03:44.440Z,100959.41
2023-04-08T07:06:12.245Z,100953.53
2023-04-08T07:08:39.980Z,100954.34
2023-04-08T07:11:09.236Z,100955.25
2023-04-08T07:13:36.919Z,100959.69
2023-04-08T07:16:04.928Z,100958.56
2023-04-08T07:18:32.943Z,100963.63
2023-04-08T07:21:01.035Z,100971.31
2023-04-08T07:23:28.974Z,100971.34
2023-04-08T07:25:56.756Z,100980.41
2023-04-08T07:28:25.769Z,100976.59
2023-04-08T07:30:53.526Z,100982.00
2023-04-08T07:33:21.250Z,100982.53
2023-04-08T07:35:48.980Z,100989.34
2023-04-08T07:38:16.705Z,100986.88
2023-04-08T07:40:44.379Z,100994.84
2023-04-08T07:43:12.112Z,100996.78
2023-04-08T07:45:41.166Z,100995.75
2023-04-08T07:48:08.929Z,100994.66
2023-04-08T07:51:08.913Z,101004.56
2023-04-08T07:53:26.605Z,101006.56
2023-04-08T07:55:54.390Z,101008.38
2023-04-08T07:58:22.241Z,101007.84
2023-04-08T08:00:51.422Z,101009.22
2023-04-08T08:03:19.475Z,101013.44
2023-04-08T08:05:47.286Z,101022.28
2023-04-08T08:08:14.963Z,101019.19
2023-04-08T08:10:42.650Z,101020.22
2023-04-08T08:13:10.346Z,101017.91
2023-04-08T08:15:38.110Z,101021.13
2023-04-08T08:18:07.178Z,101025.72
2023-04-08T08:20:36.806Z,101021.59
2023-04-08T08:23:04.577Z,101020.84
2023-04-08T08:25:32.278Z,101019.78
2023-04-08T08:28:00.048Z,101023.84
2023-04-08T08:30:28.062Z,101015.44
2023-04-08T08:32:59.016Z,101015.25
2023-04-08T08:35:28.447Z,101025.56
2023-04-08T08:37:56.320Z,101025.06
2023-04-08T08:40:24.155Z,101028.47
2023-04-08T08:42:53.346Z,101028.25
2023-04-08T08:45:21.520Z,101031.25
2023-04-08T08:47:51.191Z,101026.56
2023-04-08T08:50:19.860Z,101035.09
2023-04-08T08:52:51.564Z,101030.59
2023-04-08T08:55:34.948Z,101035.00
2023-04-08T08:58:08.615Z,101038.81
2023-04-08T09:00:38.213Z,101045.09
2023-04-08T09:03:20.087Z,101048.50
2023-04-08T09:05:55.686Z,101051.19
2023-04-08T09:08:29.201Z,101054.25
2023-04-08T09:10:57.567Z,101052.97
2023-04-08T09:13:25.582Z,101050.75
2023-04-08T09:16:05.168Z,101054.66
2023-04-08T09:18:33.645Z,101059.53
2023-04-08T09:21:02.371Z,101057.16
2023-04-08T09:23:46.001Z,101057.38
2023-04-08T09:26:15.766Z,101059.28
2023-04-08T09:28:45.338Z,101054.97
2023-04-08T09:31:24.276Z,101058.94
2023-04-08T09:33:54.744Z,101058.44
2023-04-08T09:36:22.815Z,101063.63
2023-04-08T09:38:51.921Z,101061.25
2023-04-08T09:41:23.377Z,101057.44
2023-04-08T09:43:52.638Z,101062.56
2023-04-08T09:46:28.146Z,101059.94
2023-04-08T09:49:03.194Z,101059.59
2023-04-08T09:51:37.826Z,101064.22
2023-04-08T09:54:14.710Z,101058.78
2023-04-08T09:56:45.740Z,101061.44
2023-04-08T09:59:17.332Z,101060.22
2023-04-08T10:01:51.062Z,101066.06
2023-04-08T10:04:22.044Z,101058.44
2023-04-08T10:06:55.452Z,101060.47
2023-04-08T10:09:24.677Z,101061.59
2023-04-08T10:11:53.737Z,101060.00
2023-04-08T10:14:22.137Z,101057.59
2023-04-08T10:16:50.426Z,101057.72
2023-04-08T10:19:40.469Z,101059.00
2023-04-08T10:22:42.294Z,101064.59
2023-04-08T10:25:32.368Z,101064.97
2023-04-08T10:28:00.496Z,101064.13
2023-04-08T10:30:41.472Z,101058.53
2023-04-08T10:33:12.214Z,101063.66
2023-04-08T10:35:43.207Z,101069.00
2023-04-08T10:38:11.665Z,101063.41
2023-04-08T10:40:42.765Z,101070.91
2023-04-08T10:43:11.505Z,101065.53
2023-04-08T10:45:39.532Z,101068.81
2023-04-08T10:48:14.940Z,101063.94
2023-04-08T10:50:42.989Z,101068.91
2023-04-08T10:53:11.795Z,101059.44
2023-04-08T10:55:40.923Z,101057.38
2023-04-08T10:58:09.755Z,101064.25
2023-04-08T11:00:39.246Z,101060.06
2023-04-08T11:03:08.608Z,101056.28
2023-04-08T11:05:38.103Z,101066.72
2023-04-08T11:08:06.643Z,101069.13
2023-04-08T11:10:38.789Z,101064.03
2023-04-08T11:13:10.165Z,101065.88
2023-04-08T11:15:38.304Z,101066.22
2023-04-08T11:18:06.826Z,101070.38
2023-04-08T11:20:37.207Z,101067.06
2023-04-08T11:23:04.971Z,101072.78
2023-04-08T11:25:33.322Z,101069.16
2023-04-08T11:28:01.327Z,101069.91
2023-04-08T11:30:31.344Z,101065.66
2023-04-08T11:32:59.246Z,101070.28
2023-04-08T11:35:30.334Z,101067.38
2023-04-08T11:37:59.020Z,101065.06
2023-04-08T11:40:27.429Z,101061.44
2023-04-08T11:42:55.402Z,101056.22
2023-04-08T11:45:23.133Z,101054.16
2023-04-08T11:47:53.085Z,101041.66
2023-04-08T11:50:24.572Z,101054.06
2023-04-08T11:52:53.805Z,101051.97
2023-04-08T11:55:25.934Z,101052.09
2023-04-08T11:57:54.241Z,101050.59
2023-04-08T12:00:22.825Z,101047.00
2023-04-08T12:02:52.743Z,101047.00
2023-04-08T12:05:21.117Z,101050.75
2023-04-08T12:07:48.984Z,101049.16
2023-04-08T12:10:17.149Z,101049.91
2023-04-08T12:12:44.911Z,101049.31
2023-04-08T12:15:12.823Z,101049.53
2023-04-08T12:17:40.713Z,101045.41
2023-04-08T12:20:11.559Z,101047.84
2023-04-08T12:22:39.468Z,101045.47
2023-04-08T12:25:08.006Z,101038.56
2023-04-08T12:27:35.680Z,101038.31
2023-04-08T12:30:04.497Z,101034.00
2023-04-08T12:32:32.372Z,101034.31
2023-04-08T12:35:00.047Z,101037.63
2023-04-08T12:37:29.177Z,101032.63
2023-04-08T12:39:56.939Z,101033.53
2023-04-08T12:42:24.713Z,101028.44
2023-04-08T12:44:52.702Z,101030.44
2023-04-08T12:47:20.326Z,101036.94
2023-04-08T12:49:49.760Z,101027.50
2023-04-08T12:52:18.738Z,101029.34
2023-04-08T12:54:47.856Z,101036.22
2023-04-08T12:57:15.540Z,101031.50
2023-04-08T12:59:43.255Z,101021.25
2023-04-08T13:02:11.057Z,101024.13
2023-04-08T13:04:38.865Z,101027.22
2023-04-08T13:07:07.678Z,101033.88
2023-04-08T13:09:35.510Z,101035.38
2023-04-08T13:12:04.852Z,101032.16
2023-04-08T13:14:32.893Z,101027.06
2023-04-08T13:17:00.664Z,101024.47
2023-04-08T13:19:28.401Z,101025.47
2023-04-08T13:21:56.165Z,101030.47
2023-04-08T13:24:24.081Z,101024.47
2023-04-08T13:26:52.409Z,101022.63
2023-04-08T13:29:21.469Z,101023.81
2023-04-08T13:31:49.330Z,101028.13
2023-04-08T13:34:16.990Z,101020.97
2023-04-08T13:36:44.636Z,101028.00
2023-04-08T13:39:12.309Z,101027.00
2023-04-08T13:41:39.895Z,101026.38
2023-04-08T13:44:07.638Z,101017.25
2023-04-08T13:46:36.673Z,101012.53
2023-04-08T13:49:04.391Z,101013.69
2023-04-08T13:51:32.033Z,101019.34
2023-04-08T13:53:59.694Z,101014.09
2023-04-08T13:56:27.398Z,101012.97
2023-04-08T13:58:57.494Z,101011.78
2023-04-08T14:01:25.870Z,101013.53
2023-04-08T14:03:55.008Z,101014.22
2023-04-08T14:06:22.762Z,101009.88
2023-04-08T14:08:50.812Z,101002.41
2023-04-08T14:11:18.721Z,101011.56
2023-04-08T14:13:46.388Z,101010.28
2023-04-08T14:16:14.176Z,101012.25
2023-04-08T14:18:41.889Z,101015.47
2023-04-08T14:21:10.924Z,101005.03
2023-04-08T14:23:38.550Z,101009.78
2023-04-08T14:26:06.690Z,101008.78
2023-04-08T14:28:34.293Z,101000.09
2023-04-08T14:31:04.091Z,101007.97
2023-04-08T14:33:31.879Z,100997.09
2023-04-08T14:36:00.265Z,101003.47
2023-04-08T14:38:29.440Z,101006.94
2023-04-08T14:40:57.159Z,101006.06
2023-04-08T14:43:24.974Z,101007.94
2023-04-08T14:45:52.672Z,101011.28
2023-04-08T14:48:20.686Z,101010.25
2023-04-08T14:50:48.349Z,101008.34
2023-04-08T14:53:17.075Z,101014.81
2023-04-08T14:55:46.196Z,101011.00
2023-04-08T14:58:13.913Z,101015.31
2023-04-08T15:00:44.235Z,101013.88
2023-04-08T15:03:12.196Z,101024.78
2023-04-08T15:05:39.957Z,101017.69
2023-04-08T15:08:07.831Z,101017.94
2023-04-08T15:10:35.661Z,101021.00
2023-04-08T15:13:04.995Z,101017.28
2023-04-08T15:15:32.785Z,101021.78
2023-04-08T15:18:00.552Z,101020.72
2023-04-08T15:20:28.224Z,101025.09
2023-04-08T15:22:57.040Z,101025.94
2023-04-08T15:25:24.676Z,101027.56
2023-04-08T15:27:52.456Z,101026.13
2023-04-08T15:30:24.533Z,101030.50
2023-04-08T15:32:52.595Z,101030.03
2023-04-08T15:35:20.770Z,101031.00
2023-04-08T15:37:48.634Z,101031.22
2023-04-08T15:40:16.633Z,101024.31
2023-04-08T15:42:44.666Z,101030.50
2023-04-08T15:45:13.106Z,101023.59
2023-04-08T15:47:42.241Z,101027.25
2023-04-08T15:50:10.872Z,101036.88
2023-04-08T15:52:38.552Z,101027.88
2023-04-08T15:55:07.361Z,101031.88
2023-04-08T15:57:36.634Z,101035.66
2023-04-08T16:00:08.491Z,101035.78
2023-04-08T16:02:36.639Z,101030.59
2023-04-08T16:05:06.752Z,101030.09
2023-04-08T16:07:34.449Z,101038.84
2023-04-08T16:10:02.113Z,101032.31
2023-04-08T16:12:29.914Z,101033.25
2023-04-08T16:14:57.840Z,101036.66
2023-04-08T16:17:25.719Z,101038.59
2023-04-08T16:19:53.385Z,101040.56
2023-04-08T16:22:22.543Z,101044.22
2023-04-08T16:24:50.302Z,101052.25
2023-04-08T16:27:17.997Z,101049.69
2023-04-08T16:29:46.053Z,101046.41
2023-04-08T16:32:13.764Z,101043.00
2023-04-08T16:34:41.539Z,101048.94
2023-04-08T16:37:09.419Z,101045.06
2023-04-08T16:39:38.498Z,101050.16
2023-04-08T16:42:06.394Z,101050.63
2023-04-08T16:44:34.724Z,101058.41
2023-04-08T16:47:02.393Z,101059.09
2023-04-08T16:49:30.223Z,101061.91
2023-04-08T16:51:58.295Z,101067.84
2023-04-08T16:54:26.037Z,101063.72
2023-04-08T16:56:55.779Z,101064.59
2023-04-08T16:59:23.505Z,101062.03
2023-04-08T17:01:51.604Z,101067.75
2023-04-08T17:04:19.451Z,101071.47
2023-04-08T17:06:48.154Z,101070.75
2023-04-08T17:09:15.964Z,101068.31
2023-04-08T17:11:43.875Z,101071.94
2023-04-08T17:14:13.078Z,101070.25
2023-04-08T17:16:40.846Z,101075.81
2023-04-08T17:19:08.551Z,101081.28
2023-04-08T17:21:36.206Z,101082.25
2023-04-08T17:24:04.486Z,101087.09
2023-04-08T17:26:32.258Z,101083.78
2023-04-08T17:28:59.967Z,101089.28
2023-04-08T17:31:29.704Z,101086.94
2023-04-08T17:33:57.411Z,101093.59
2023-04-08T17:36:25.745Z,101088.59
2023-04-08T17:38:53.457Z,101095.75
2023-04-08T17:41:38.421Z,101093.19
2023-04-08T17:44:07.737Z,101096.22
2023-04-08T17:46:36.942Z,101100.81
2023-04-08T17:49:04.650Z,101105.38
2023-04-08T17:51:32.926Z,101102.94
2023-04-08T17:54:00.927Z,101111.91
2023-04-08T17:56:29.102Z,101102.31
2023-04-08T17:58:56.746Z,101107.78
2023-04-08T18:01:24.562Z,101117.72
2023-04-08T18:03:53.776Z,101115.34
2023-04-08T18:06:21.788Z,101124.56
2023-04-08T18:08:52.435Z,101117.00
2023-04-08T18:11:21.087Z,101118.44
2023-04-08T18:13:49.160Z,101115.97
2023-04-08T18:16:18.228Z,101125.25
2023-04-08T18:18:46.957Z,101118.25
2023-04-08T18:21:17.861Z,101119.28
2023-04-08T18:23:46.952Z,101122.19
2023-04-08T18:26:14.596Z,101129.47
2023-04-08T18:28:42.329Z,101133.22
2023-04-08T18:31:10.037Z,101131.81
2023-04-08T18:33:38.977Z,101126.69
2023-04-08T18:36:08.506Z,101135.88
2023-04-08T18:38:38.167Z,101140.47
2023-04-08T18:41:06.467Z,101129.06
2023-04-08T18:43:34.821Z,101142.50
2023-04-08T18:46:02.980Z,101148.06
2023-04-08T18:48:30.703Z,101146.47
2023-04-08T18:50:58.642Z,101149.34
2023-04-08T18:53:26.483Z,101151.38
2023-04-08T18:55:56.116Z,101154.25
2023-04-08T18:58:23.890Z,101153.50
2023-04-08T19:00:51.678Z,101162.56
2023-04-08T19:03:19.511Z,101156.38
2023-04-08T19:05:47.553Z,101161.06
2023-04-08T19:08:15.458Z,101155.97
2023-04-08T19:10:43.186Z,101160.66
2023-04-08T19:13:12.298Z,101162.66
2023-04-08T19:15:40.050Z,101153.91
2023-04-08T19:18:07.836Z,101156.81
2023-04-08T19:20:35.508Z,101152.44
2023-04-08T19:23:03.573Z,101159.78
2023-04-08T19:25:31.831Z,101155.41
2023-04-08T19:28:02.490Z,101159.91
2023-04-08T19:30:31.670Z,101171.41
2023-04-08T19:32:59.783Z,101163.41
2023-04-08T19:35:27.513Z,101166.16
2023-04-08T19:37:55.404Z,101171.59
2023-04-08T19:40:23.281Z,101168.19
2023-04-08T19:42:50.946Z,101171.91
2023-04-08T19:45:19.039Z,101167.84
2023-04-08T19:47:48.109Z,101170.84
2023-04-08T19:50:16.155Z,101171.69
2023-04-08T19:52:43.906Z,101170.00
2023-04-08T19:55:11.728Z,101172.00
2023-04-08T19:57:39.429Z,101176.34
2023-04-08T20:00:08.783Z,101174.84
2023-04-08T20:02:36.827Z,101178.59
2023-04-08T20:05:06.885Z,101179.53
2023-04-08T20:07:35.281Z,101177.84
2023-04-08T20:10:02.982Z,101179.75
2023-04-08T20:12:31.250Z,101180.69
2023-04-08T20:14:58.896Z,101180.69
2023-04-08T20:17:27.173Z,101181.66
2023-04-08T20:19:55.085Z,101176.13
2023-04-08T20:22:24.132Z,101179.75
2023-04-08T20:24:51.788Z,101181.56
2023-04-08T20:27:19.797Z,101182.41
2023-04-08T20:29:47.583Z,101182.41
2023-04-08T20:32:15.385Z,101184.34
2023-04-08T20:34:43.084Z,101179.19
2023-04-08T20:37:11.726Z,101180.25
2023-04-08T20:39:41.096Z,101182.09
2023-04-08T20:42:09.418Z,101175.09
2023-04-08T20:44:37.406Z,101177.00
2023-04-08T20:47:05.243Z,101173.31
2023-04-08T20:49:35.110Z,101179.47
2023-04-08T20:52:02.812Z,101184.81
2023-04-08T20:54:31.739Z,101182.13
2023-04-08T20:57:01.875Z,101184.91
2023-04-08T20:59:29.698Z,101183.31
2023-04-08T21:01:57.468Z,101186.81
2023-04-08T21:04:25.413Z,101181.47
2023-04-08T21:06:53.207Z,101189.69
2023-04-08T21:09:20.951Z,101182.66
2023-04-08T21:11:48.742Z,101186.16
2023-04-08T21:14:17.859Z,101188.94
2023-04-08T21:16:45.670Z,101188.06
2023-04-08T21:19:13.491Z,101195.13
2023-04-08T21:21:41.216Z,101198.84
2023-04-08T21:24:09.854Z,101191.78
2023-04-08T21:26:37.681Z,101190.09
2023-04-08T21:29:05.449Z,101202.84
2023-04-08T21:31:34.801Z,101191.53
2023-04-08T21:34:02.477Z,101188.13
2023-04-08T21:36:31.414Z,101190.03
2023-04-08T21:38:59.131Z,101195.56
2023-04-08T21:41:28.994Z,101191.28
2023-04-08T21:43:58.244Z,101197.56
2023-04-08T21:46:26.129Z,101196.81
2023-04-08T21:48:55.292Z,101202.22
2023-04-08T21:51:23.232Z,101198.72
2023-04-08T21:53:51.805Z,101194.34
2023-04-08T21:56:19.707Z,101201.56
2023-04-08T21:58:47.429Z,101199.88
2023-04-08T22:01:15.401Z,101199.75
2023-04-08T22:03:43.874Z,101208.78
2023-04-08T22:06:19.323Z,101200.06
2023-04-08T22:08:53.699Z,101202.81
2023-04-08T22:11:21.577Z,101197.50
2023-04-08T22:13:49.578Z,101196.56
2023-04-08T22:16:17.365Z,101198.25
2023-04-08T22:18:45.529Z,101193.97
2023-04-08T22:21:14.798Z,101200.91
2023-04-08T22:23:42.723Z,101200.91
2023-04-08T22:26:10.468Z,101203.56
2023-04-08T22:28:38.151Z,101205.47
2023-04-08T22:31:10.414Z,101195.88
2023-04-08T22:33:38.388Z,101203.03
2023-04-08T22:36:06.972Z,101206.44
2023-04-08T22:38:36.186Z,101206.53
2023-04-08T22:41:03.974Z,101210.91
2023-04-08T22:43:31.727Z,101205.59
2023-04-08T22:45:59.531Z,101205.69
2023-04-08T22:48:27.216Z,101212.69
2023-04-08T22:50:54.972Z,101202.19
2023-04-08T22:53:22.661Z,101206.53
2023-04-08T22:55:51.753Z,101202.19
2023-04-08T22:58:19.438Z,101203.97
2023-04-08T23:00:47.211Z,101202.75
2023-04-08T23:03:15.011Z,101204.97
2023-04-08T23:05:42.700Z,101207.72
2023-04-08T23:08:10.462Z,101203.22
2023-04-08T23:10:38.243Z,101202.38
2023-04-08T23:13:07.376Z,101199.53
2023-04-08T23:15:35.264Z,101194.31
2023-04-08T23:18:02.944Z,101210.38
2023-04-08T23:20:30.610Z,101205.13
2023-04-08T23:22:58.228Z,101208.56
2023-04-08T23:25:26.080Z,101209.53
2023-04-08T23:27:55.341Z,101213.03
2023-04-08T23:30:24.430Z,101209.63
2023-04-08T23:32:52.115Z,101216.63
2023-04-08T23:35:20.043Z,101213.88
2023-04-08T23:37:47.714Z,101211.97
2023-04-08T23:40:15.332Z,101213.13
2023-04-08T23:42:42.986Z,101217.09
2023-04-08T23:45:11.548Z,101209.50
2023-04-08T23:47:40.665Z,101219.69
2023-04-08T23:50:09.747Z,101217.31
2023-04-08T23:52:37.383Z,101221.28
2023-04-08T23:55:05.581Z,101216.28
2023-04-08T23:57:33.246Z,101217.41
